Terminal Aerodrome Forecast
Issued by NWS Binghamton, NY

Home | Current Version | Previous Version | Text Only | Print | Product List | Glossary On
Versions: 1 2 3 4 5 6 7 8 9 10 11 12 13 14 15 16 17 18 19
000
FTUS41 KBGM 201700
TAFSYR
TAF
KSYR 201739Z 2018/2118 21012G25KT P6SM BKN040
     FM210000 18012KT P6SM SCT040 BKN250
     FM210900 18012KT P6SM SCT025 BKN080
     FM211500 23010G20KT P6SM BKN040=

USA.gov is the U.S. government's official web portal to all federal, state and local government web resources and services.